Weather History for Telluride, CO

Change the Weather History Date:

Wednesday, October 31, 2012

  Actual Average Record
Temperature  
Mean Temperature 46 °F -  
Max Temperature 59 °F 43 °F 59 °F (2008)
Min Temperature 32 °F 27 °F 15 °F (2004)
Degree Days  
Heating Degree Days 20    
Moisture  
Dew Point 15 °F    
Average Humidity 35    
Maximum Humidity 60    
Minimum Humidity 14    
Precipitation  
Precipitation 0.00 in - - ()
Sea Level Pressure  
Sea Level Pressure 30.33 in    
Wind  
Wind Speed 6 mph (SSE)    
Max Wind Speed 17 mph    
Max Gust Speed 21 mph    
Visibility 10 miles    
Events      
Averages and records for this station are not official NWS values.
T = Trace of Precipitation, MM = Missing Value Source: NWS Daily Summary

Daily Weather History Graph

Daily Weather History Graph

Search for Another Location

Airport:

Trip Planner

Search our weather history database for the weather conditions in past years. The results will help you decide how hot, cold, wet, or windy it might be!

Date:

Astronomy

Oct. 31, 2012 Rise Set
Actual Time 7:36 AM MDT 6:13 PM MDT
Civil Twilight 7:09 AM MDT 6:40 PM MDT
Nautical Twilight 6:38 AM MDT 7:11 PM MDT
Astronomical Twilight 6:07 AM MDT 7:42 PM MDT
Moon 7:28 PM MDT (10/31) 9:18 AM MDT (10/31)
Length of Visible Light 11h 30m
Length of Day
10h 36m
Full, 97% of the Moon is Illuminated
Oct 31
Full
Nov 6
Last Quarter
Nov 13
New
Nov 20
First Quarter
Nov 28
Full

Hourly Weather History & Observations

Time (MDT) Temp. Windchill Dew Point Humidity Pressure Visibility Wind Dir Wind Speed Gust Speed Precip Events Conditions
12:15 AM 35.6 °F 30.7 °F 19.4 °F 52% 30.35 in 10.0 mi ESE 5.8 mph - N/A   Clear
12:35 AM 33.8 °F 28.6 °F 19.4 °F 56% 30.35 in 10.0 mi ESE 5.8 mph - N/A   Clear
12:55 AM 35.6 °F 29.9 °F 19.4 °F 52% 30.34 in 10.0 mi SE 6.9 mph - N/A   Clear
1:15 AM 35.6 °F 30.7 °F 19.4 °F 52% 30.35 in 10.0 mi ESE 5.8 mph - N/A   Clear
1:35 AM 33.8 °F 29.6 °F 19.4 °F 56% 30.35 in 10.0 mi SE 4.6 mph - N/A   Clear
1:55 AM 35.6 °F 30.7 °F 19.4 °F 52% 30.35 in 10.0 mi ESE 5.8 mph - N/A   Clear
2:15 AM 33.8 °F 29.6 °F 19.4 °F 56% 30.35 in 10.0 mi ESE 4.6 mph - N/A   Clear
2:35 AM 33.8 °F 27.7 °F 19.4 °F 56% 30.35 in 10.0 mi SE 6.9 mph - N/A   Clear
2:55 AM 33.8 °F 27.7 °F 19.4 °F 56% 30.35 in 10.0 mi SE 6.9 mph - N/A   Clear
3:15 AM 32.0 °F 26.4 °F 19.4 °F 60% 30.35 in 10.0 mi ESE 5.8 mph - N/A   Clear
3:35 AM 33.8 °F 29.6 °F 17.6 °F 52% 30.34 in 10.0 mi SE 4.6 mph - N/A   Clear
3:55 AM 33.8 °F 30.8 °F 17.6 °F 52% 30.33 in 10.0 mi East 3.5 mph - N/A   Clear
4:15 AM 33.8 °F 28.6 °F 17.6 °F 52% 30.33 in 10.0 mi East 5.8 mph - N/A   Clear
4:35 AM 32.0 °F 28.7 °F 15.8 °F 51% 30.33 in 10.0 mi ESE 3.5 mph - N/A   Clear
4:55 AM 32.0 °F 26.4 °F 15.8 °F 51% 30.33 in 10.0 mi ESE 5.8 mph - N/A   Clear
5:15 AM 32.0 °F 26.4 °F 15.8 °F 51% 30.33 in 10.0 mi ESE 5.8 mph - N/A   Clear
5:35 AM 32.0 °F 26.4 °F 14.0 °F 48% 30.34 in 10.0 mi ESE 5.8 mph - N/A   Clear
5:55 AM 32.0 °F 25.6 °F 14.0 °F 48% 30.34 in 10.0 mi ESE 6.9 mph - N/A   Clear
6:15 AM 32.0 °F 28.7 °F 14.0 °F 48% 30.34 in 10.0 mi ESE 3.5 mph - N/A   Clear
6:35 AM 33.8 °F 29.6 °F 12.2 °F 41% 30.35 in 10.0 mi ESE 4.6 mph - N/A   Clear
6:55 AM 32.0 °F 27.5 °F 14.0 °F 48% 30.35 in 10.0 mi East 4.6 mph - N/A   Clear
7:15 AM 32.0 °F 25.6 °F 12.2 °F 44% 30.35 in 10.0 mi ESE 6.9 mph - N/A   Clear
7:35 AM 32.0 °F 24.8 °F 10.4 °F 41% 30.35 in 10.0 mi ESE 8.1 mph - N/A   Clear
7:55 AM 32.0 °F 26.4 °F 12.2 °F 44% 30.35 in 10.0 mi SE 5.8 mph - N/A   Clear
8:15 AM 33.8 °F 27.7 °F 10.4 °F 38% 30.36 in 10.0 mi ESE 6.9 mph - N/A   Clear
8:35 AM 33.8 °F 28.6 °F 12.2 °F 41% 30.36 in 10.0 mi SE 5.8 mph - N/A   Clear
8:55 AM 35.6 °F 31.7 °F 10.4 °F 35% 30.37 in 10.0 mi SE 4.6 mph - N/A   Clear
9:15 AM 37.4 °F 33.8 °F 10.4 °F 33% 30.36 in 10.0 mi ESE 4.6 mph - N/A   Clear
9:35 AM 41.0 °F - 10.4 °F 29% 30.37 in 10.0 mi Calm Calm - N/A   Clear
9:55 AM 42.8 °F - 10.4 °F 27% 30.36 in 10.0 mi Calm Calm - N/A   Clear
10:15 AM 44.6 °F - 10.4 °F 25% 30.37 in 10.0 mi Calm Calm - N/A   Clear
10:35 AM 46.4 °F - 10.4 °F 23% 30.36 in 10.0 mi Calm Calm - N/A   Clear
10:55 AM 48.2 °F - 10.4 °F 22% 30.37 in 10.0 mi Calm Calm - N/A   Clear
11:15 AM 50.0 °F - 10.4 °F 20% 30.36 in 10.0 mi Calm Calm - N/A   Clear
11:35 AM 53.6 °F - 12.2 °F 19% 30.36 in 10.0 mi WSW 3.5 mph - N/A   Clear
11:55 AM 53.6 °F - 14.0 °F 21% 30.36 in 10.0 mi SW 4.6 mph - N/A   Clear
12:15 PM 55.4 °F - 14.0 °F 20% 30.35 in 10.0 mi West 5.8 mph - N/A   Clear
12:35 PM 55.4 °F - 12.2 °F 18% 30.34 in 10.0 mi SW 8.1 mph - N/A   Clear
12:55 PM 57.2 °F - 12.2 °F 17% 30.33 in 10.0 mi West 8.1 mph - N/A   Clear
1:15 PM 57.2 °F - 10.4 °F 16% 30.33 in 10.0 mi West 11.5 mph - N/A   Clear
1:35 PM 57.2 °F - 10.4 °F 16% 30.32 in 10.0 mi West 10.4 mph - N/A   Clear
1:55 PM 59.0 °F - 10.4 °F 15% 30.31 in 10.0 mi West 10.4 mph - N/A   Clear
2:15 PM 59.0 °F - 10.4 °F 15% 30.31 in 10.0 mi WSW 10.4 mph - N/A   Clear
2:35 PM 59.0 °F - 8.6 °F 14% 30.30 in 10.0 mi WSW 9.2 mph - N/A   Clear
2:55 PM 59.0 °F - 10.4 °F 15% 30.30 in 10.0 mi West 9.2 mph - N/A   Clear
3:15 PM 59.0 °F - 12.2 °F 16% 30.29 in 10.0 mi West 9.2 mph - N/A   Clear
3:35 PM 59.0 °F - 10.4 °F 15% 30.29 in 10.0 mi WSW 10.4 mph - N/A   Clear
3:55 PM 59.0 °F - 12.2 °F 16% 30.29 in 10.0 mi West 9.2 mph 18.4 mph N/A   Clear
4:15 PM 59.0 °F - 14.0 °F 17% 30.29 in 10.0 mi WSW 17.3 mph 20.7 mph N/A   Clear
4:35 PM 57.2 °F - 14.0 °F 18% 30.29 in 10.0 mi West 12.7 mph 17.3 mph N/A   Clear
4:55 PM 57.2 °F - 15.8 °F 20% 30.30 in 10.0 mi West 8.1 mph - N/A   Clear
5:15 PM 55.4 °F - 15.8 °F 21% 30.30 in 10.0 mi West 11.5 mph 18.4 mph N/A   Clear
5:35 PM 55.4 °F - 15.8 °F 21% 30.30 in 10.0 mi West 13.8 mph - N/A   Clear
6:15 PM 51.8 °F - 17.6 °F 26% 30.31 in 10.0 mi West 10.4 mph - N/A   Clear
6:35 PM 51.8 °F - 17.6 °F 26% 30.31 in 10.0 mi West 8.1 mph - N/A   Clear
6:55 PM 50.0 °F - 17.6 °F 28% 30.32 in 10.0 mi WSW 8.1 mph - N/A   Clear
7:15 PM 50.0 °F - 17.6 °F 28% 30.32 in 10.0 mi ESE 3.5 mph - N/A   Clear
7:35 PM 46.4 °F 45.2 °F 17.6 °F 32% 30.33 in 10.0 mi East 3.5 mph - N/A   Clear
7:55 PM 46.4 °F 43.5 °F 17.6 °F 32% 30.33 in 10.0 mi ESE 5.8 mph - N/A   Clear
8:15 PM 46.4 °F 43.5 °F 17.6 °F 32% 30.33 in 10.0 mi East 5.8 mph - N/A   Clear
8:35 PM 44.6 °F 40.2 °F 17.6 °F 34% 30.33 in 10.0 mi ESE 8.1 mph - N/A   Clear
8:55 PM 42.8 °F 38.6 °F 17.6 °F 36% 30.33 in 10.0 mi ESE 6.9 mph - N/A   Clear
9:15 PM 42.8 °F 38.6 °F 17.6 °F 36% 30.33 in 10.0 mi ESE 6.9 mph - N/A   Clear
9:35 PM 42.8 °F 39.3 °F 17.6 °F 36% 30.33 in 10.0 mi SE 5.8 mph - N/A   Clear
9:55 PM 41.0 °F 38.0 °F 17.6 °F 39% 30.33 in 10.0 mi SE 4.6 mph - N/A   Clear
10:15 PM 41.0 °F 36.4 °F 17.6 °F 39% 30.33 in 10.0 mi SE 6.9 mph - N/A   Clear
10:35 PM 41.0 °F 37.1 °F 17.6 °F 39% 30.33 in 10.0 mi ESE 5.8 mph - N/A   Clear
10:55 PM 39.2 °F 34.2 °F 17.6 °F 42% 30.33 in 10.0 mi ESE 6.9 mph - N/A   Clear
11:15 PM 39.2 °F 33.6 °F 19.4 °F 45% 30.34 in 10.0 mi SE 8.1 mph - N/A   Clear
11:35 PM 37.4 °F 32.1 °F 19.4 °F 48% 30.33 in 10.0 mi SE 6.9 mph - N/A   Clear